CheckWX is a tool to help pilots better visualize weather data.  It is not intended as a substitute for an official pre-flight weather briefing.

18:31:28 UTC

KGVE METAR
Gordonsville Municipal Airport
Gordonsville, Virginia, USA
Current

16 mins ago

KGVE 231815Z AUTO 00000KT 10SM CLR 05/M07 A3033 RMK AO1 T00521071
Observed
Jan-23 @ 18:15 UTC
Visibility
10 SM
Flight Rules
VFR
Cloud Levels
  • Clear skies
Temperature
C / 41°F
Dewpoint
-7°C / 19°F
Humidity
42%
Altimeter
30.33" Hg
Pressure
1027.12 hPa
Previous

36 mins ago

KGVE 231755Z AUTO 17003KT 10SM CLR 05/M06 A3035 RMK AO1 6//// T00481063
Observed
Jan-23 @ 17:55 UTC
Wind
  • 170° at 3 KTS
Visibility
10 SM
Flight Rules
VFR
Cloud Levels
  • Clear skies
Temperature
C / 41°F
Dewpoint
-6°C / 21°F
Humidity
45%
Altimeter
30.35" Hg
Pressure
1027.82 hPa
Previous

56 mins ago

KGVE 231735Z AUTO 21004KT 10SM CLR 04/M07 A3036 RMK AO1 T00411066
Observed
Jan-23 @ 17:35 UTC
Wind
  • 210° at 4 KTS
Visibility
10 SM
Flight Rules
VFR
Cloud Levels
  • Clear skies
Temperature
C / 39°F
Dewpoint
-7°C / 19°F
Humidity
45%
Altimeter
30.36" Hg
Pressure
1028.12 hPa